sensor_id;sensor_type;location;lat;lon;timestamp;pressure;altitude;pressure_sealevel;temperature;humidity
39455;BME280;25155;41.890;23.446;2023-03-01T00:02:22;92271.78;;;4.48;69.72
39455;BME280;25155;41.890;23.446;2023-03-01T00:04:49;92267.38;;;4.49;69.81
39455;BME280;25155;41.890;23.446;2023-03-01T00:07:16;92261.19;;;4.50;69.82
39455;BME280;25155;41.890;23.446;2023-03-01T00:09:44;92268.16;;;4.49;69.34
39455;BME280;25155;41.890;23.446;2023-03-01T00:12:12;92268.06;;;4.44;69.60
39455;BME280;25155;41.890;23.446;2023-03-01T00:14:40;92263.34;;;4.41;69.10
39455;BME280;25155;41.890;23.446;2023-03-01T00:17:07;92263.03;;;4.37;69.24
39455;BME280;25155;41.890;23.446;2023-03-01T00:19:35;92260.13;;;4.34;69.72
39455;BME280;25155;41.890;23.446;2023-03-01T00:22:02;92266.25;;;4.28;69.38
39455;BME280;25155;41.890;23.446;2023-03-01T00:24:29;92265.16;;;4.24;70.11
39455;BME280;25155;41.890;23.446;2023-03-01T00:26:56;92271.91;;;4.25;70.02
39455;BME280;25155;41.890;23.446;2023-03-01T00:29:25;92271.13;;;4.24;69.98
39455;BME280;25155;41.890;23.446;2023-03-01T00:31:52;92267.06;;;4.28;70.08
39455;BME280;25155;41.890;23.446;2023-03-01T00:34:19;92268.84;;;4.28;70.25
39455;BME280;25155;41.890;23.446;2023-03-01T00:36:47;92271.75;;;4.31;69.84
39455;BME280;25155;41.890;23.446;2023-03-01T00:39:15;92272.78;;;4.30;69.67
39455;BME280;25155;41.890;23.446;2023-03-01T00:41:42;92276.16;;;4.31;69.93
39455;BME280;25155;41.890;23.446;2023-03-01T00:44:10;92270.13;;;4.25;70.26
39455;BME280;25155;41.890;23.446;2023-03-01T00:46:39;92267.66;;;4.18;69.96
39455;BME280;25155;41.890;23.446;2023-03-01T00:49:06;92273.94;;;4.23;69.78
39455;BME280;25155;41.890;23.446;2023-03-01T00:51:33;92271.34;;;4.23;70.16
39455;BME280;25155;41.890;23.446;2023-03-01T00:54:02;92263.63;;;4.11;71.22
39455;BME280;25155;41.890;23.446;2023-03-01T00:56:30;92262.19;;;4.03;71.50
39455;BME280;25155;41.890;23.446;2023-03-01T00:58:58;92261.66;;;4.01;71.52
39455;BME280;25155;41.890;23.446;2023-03-01T01:01:27;92255.00;;;3.93;72.12
39455;BME280;25155;41.890;23.446;2023-03-01T01:03:59;92251.06;;;3.74;72.85
39455;BME280;25155;41.890;23.446;2023-03-01T01:06:29;92249.16;;;3.69;73.17
39455;BME280;25155;41.890;23.446;2023-03-01T01:08:58;92238.31;;;3.72;73.19
39455;BME280;25155;41.890;23.446;2023-03-01T01:11:28;92240.47;;;3.75;73.27
39455;BME280;25155;41.890;23.446;2023-03-01T01:13:56;92228.59;;;3.79;73.28
39455;BME280;25155;41.890;23.446;2023-03-01T01:16:26;92228.50;;;3.74;73.42
39455;BME280;25155;41.890;23.446;2023-03-01T01:18:54;92230.78;;;3.71;73.68
39455;BME280;25155;41.890;23.446;2023-03-01T01:21:24;92220.22;;;3.60;74.20
39455;BME280;25155;41.890;23.446;2023-03-01T01:23:53;92225.63;;;3.59;74.52
39455;BME280;25155;41.890;23.446;2023-03-01T01:26:23;92219.88;;;3.57;74.60
39455;BME280;25155;41.890;23.446;2023-03-01T01:28:51;92213.13;;;3.56;75.00
39455;BME280;25155;41.890;23.446;2023-03-01T01:31:19;92215.50;;;3.57;75.01
39455;BME280;25155;41.890;23.446;2023-03-01T01:33:49;92211.91;;;3.46;75.20
39455;BME280;25155;41.890;23.446;2023-03-01T01:36:16;92210.91;;;3.47;75.20
39455;BME280;25155;41.890;23.446;2023-03-01T01:38:46;92219.69;;;3.46;75.41
39455;BME280;25155;41.890;23.446;2023-03-01T01:41:14;92208.53;;;3.46;75.68
39455;BME280;25155;41.890;23.446;2023-03-01T01:43:43;92198.28;;;3.51;75.40
39455;BME280;25155;41.890;23.446;2023-03-01T01:46:18;92202.53;;;3.57;75.53
39455;BME280;25155;41.890;23.446;2023-03-01T01:48:50;92206.47;;;3.60;75.23
39455;BME280;25155;41.890;23.446;2023-03-01T01:51:19;92202.38;;;3.35;75.71
39455;BME280;25155;41.890;23.446;2023-03-01T01:53:52;92194.31;;;3.60;75.32
39455;BME280;25155;41.890;23.446;2023-03-01T01:56:24;92199.13;;;3.69;74.66
39455;BME280;25155;41.890;23.446;2023-03-01T01:58:53;92203.13;;;3.76;74.71
39455;BME280;25155;41.890;23.446;2023-03-01T02:01:21;92193.06;;;3.80;74.39
39455;BME280;25155;41.890;23.446;2023-03-01T02:03:48;92183.38;;;3.87;73.41
39455;BME280;25155;41.890;23.446;2023-03-01T02:06:21;92192.94;;;3.87;73.25
39455;BME280;25155;41.890;23.446;2023-03-01T02:08:57;92182.09;;;3.90;73.49
39455;BME280;25155;41.890;23.446;2023-03-01T02:11:27;92186.34;;;3.96;73.21
39455;BME280;25155;41.890;23.446;2023-03-01T02:13:56;92175.50;;;3.99;73.13
39455;BME280;25155;41.890;23.446;2023-03-01T02:16:23;92175.06;;;4.02;72.97
39455;BME280;25155;41.890;23.446;2023-03-01T02:18:53;92188.56;;;4.04;72.57
39455;BME280;25155;41.890;23.446;2023-03-01T02:21:38;92183.75;;;3.96;72.26
39455;BME280;25155;41.890;23.446;2023-03-01T02:24:19;92181.16;;;3.96;72.09
39455;BME280;25155;41.890;23.446;2023-03-01T02:26:54;92173.63;;;3.94;72.27
39455;BME280;25155;41.890;23.446;2023-03-01T02:29:24;92174.63;;;3.93;71.99
39455;BME280;25155;41.890;23.446;2023-03-01T02:31:52;92175.97;;;3.96;72.04
39455;BME280;25155;41.890;23.446;2023-03-01T02:34:23;92172.25;;;3.92;72.02
39455;BME280;25155;41.890;23.446;2023-03-01T02:36:56;92178.50;;;3.91;71.88
39455;BME280;25155;41.890;23.446;2023-03-01T02:39:27;92182.63;;;3.92;71.79
39455;BME280;25155;41.890;23.446;2023-03-01T02:41:57;92183.22;;;3.94;71.63
39455;BME280;25155;41.890;23.446;2023-03-01T02:44:27;92174.84;;;3.92;71.57
39455;BME280;25155;41.890;23.446;2023-03-01T02:46:56;92176.13;;;3.89;71.68
39455;BME280;25155;41.890;23.446;2023-03-01T02:49:25;92181.91;;;3.79;71.35
39455;BME280;25155;41.890;23.446;2023-03-01T02:52:07;92191.09;;;3.70;71.32
39455;BME280;25155;41.890;23.446;2023-03-01T02:54:43;92182.22;;;3.66;71.56
39455;BME280;25155;41.890;23.446;2023-03-01T02:57:13;92177.50;;;3.63;71.59
39455;BME280;25155;41.890;23.446;2023-03-01T02:59:42;92176.38;;;3.59;71.51
39455;BME280;25155;41.890;23.446;2023-03-01T03:02:19;92171.66;;;3.56;71.52
39455;BME280;25155;41.890;23.446;2023-03-01T03:05:04;92168.53;;;3.54;71.76
39455;BME280;25155;41.890;23.446;2023-03-01T03:07:34;92168.63;;;3.59;71.81
39455;BME280;25155;41.890;23.446;2023-03-01T03:10:02;92159.72;;;3.55;71.95
39455;BME280;25155;41.890;23.446;2023-03-01T03:12:30;92169.94;;;3.61;71.35
39455;BME280;25155;41.890;23.446;2023-03-01T03:14:59;92177.94;;;3.60;71.43
39455;BME280;25155;41.890;23.446;2023-03-01T03:17:26;92180.78;;;3.58;71.70
39455;BME280;25155;41.890;23.446;2023-03-01T03:19:54;92170.09;;;3.55;71.95
39455;BME280;25155;41.890;23.446;2023-03-01T03:22:21;92171.34;;;3.52;71.91
39455;BME280;25155;41.890;23.446;2023-03-01T03:24:49;92170.53;;;3.52;71.99
39455;BME280;25155;41.890;23.446;2023-03-01T03:27:16;92172.13;;;3.53;71.82
39455;BME280;25155;41.890;23.446;2023-03-01T03:29:43;92169.31;;;3.54;72.20
39455;BME280;25155;41.890;23.446;2023-03-01T03:32:12;92169.00;;;3.51;72.18
39455;BME280;25155;41.890;23.446;2023-03-01T03:34:39;92170.53;;;3.52;72.52
39455;BME280;25155;41.890;23.446;2023-03-01T03:37:07;92167.88;;;3.46;72.82
39455;BME280;25155;41.890;23.446;2023-03-01T03:39:54;92174.66;;;3.36;73.52
39455;BME280;25155;41.890;23.446;2023-03-01T03:42:21;92174.00;;;3.28;73.73
39455;BME280;25155;41.890;23.446;2023-03-01T03:44:49;92179.56;;;3.08;74.46
39455;BME280;25155;41.890;23.446;2023-03-01T03:47:17;92171.25;;;2.95;75.61
39455;BME280;25155;41.890;23.446;2023-03-01T03:49:45;92167.84;;;2.94;76.46
39455;BME280;25155;41.890;23.446;2023-03-01T03:52:12;92177.66;;;2.92;76.32
39455;BME280;25155;41.890;23.446;2023-03-01T03:54:40;92175.09;;;2.80;76.79
39455;BME280;25155;41.890;23.446;2023-03-01T03:57:07;92168.34;;;2.79;77.39
39455;BME280;25155;41.890;23.446;2023-03-01T03:59:34;92163.16;;;2.79;77.25
39455;BME280;25155;41.890;23.446;2023-03-01T04:02:01;92172.84;;;2.84;77.06
39455;BME280;25155;41.890;23.446;2023-03-01T04:04:30;92169.69;;;2.82;77.40
39455;BME280;25155;41.890;23.446;2023-03-01T04:06:57;92174.31;;;2.80;77.80
39455;BME280;25155;41.890;23.446;2023-03-01T04:09:24;92171.19;;;2.78;77.41
39455;BME280;25155;41.890;23.446;2023-03-01T04:11:51;92168.34;;;2.79;77.31
39455;BME280;25155;41.890;23.446;2023-03-01T04:14:18;92169.47;;;2.83;77.33
39455;BME280;25155;41.890;23.446;2023-03-01T04:16:45;92175.41;;;2.84;77.37
39455;BME280;25155;41.890;23.446;2023-03-01T04:19:13;92169.13;;;2.80;77.38
39455;BME280;25155;41.890;23.446;2023-03-01T04:21:42;92169.03;;;2.75;77.69
39455;BME280;25155;41.890;23.446;2023-03-01T04:24:09;92166.56;;;2.80;77.47
39455;BME280;25155;41.890;23.446;2023-03-01T04:26:38;92171.28;;;2.83;77.53
39455;BME280;25155;41.890;23.446;2023-03-01T04:29:05;92165.75;;;2.91;77.08
39455;BME280;25155;41.890;23.446;2023-03-01T04:31:33;92165.66;;;2.98;77.02
39455;BME280;25155;41.890;23.446;2023-03-01T04:34:00;92167.09;;;3.05;77.01
39455;BME280;25155;41.890;23.446;2023-03-01T04:36:29;92172.84;;;3.07;76.67
39455;BME280;25155;41.890;23.446;2023-03-01T04:38:57;92167.41;;;3.09;76.48
39455;BME280;25155;41.890;23.446;2023-03-01T04:41:25;92169.75;;;3.10;75.85
39455;BME280;25155;41.890;23.446;2023-03-01T04:43:52;92170.34;;;3.13;76.34
39455;BME280;25155;41.890;23.446;2023-03-01T04:46:20;92170.91;;;3.15;76.17
39455;BME280;25155;41.890;23.446;2023-03-01T04:48:48;92158.59;;;3.22;75.53
39455;BME280;25155;41.890;23.446;2023-03-01T04:51:15;92172.66;;;3.26;75.14
39455;BME280;25155;41.890;23.446;2023-03-01T04:53:44;92161.75;;;3.24;75.20
39455;BME280;25155;41.890;23.446;2023-03-01T04:56:13;92165.00;;;3.31;75.16
39455;BME280;25155;41.890;23.446;2023-03-01T04:58:41;92164.53;;;3.34;74.66
39455;BME280;25155;41.890;23.446;2023-03-01T05:01:10;92161.94;;;3.34;74.76
39455;BME280;25155;41.890;23.446;2023-03-01T05:03:41;92156.53;;;3.36;74.32
39455;BME280;25155;41.890;23.446;2023-03-01T05:06:11;92153.72;;;3.37;74.48
39455;BME280;25155;41.890;23.446;2023-03-01T05:08:38;92158.41;;;3.40;74.27
39455;BME280;25155;41.890;23.446;2023-03-01T05:11:06;92156.63;;;3.41;74.23
39455;BME280;25155;41.890;23.446;2023-03-01T05:13:37;92158.41;;;3.40;74.45
39455;BME280;25155;41.890;23.446;2023-03-01T05:16:07;92157.41;;;3.41;74.29
39455;BME280;25155;41.890;23.446;2023-03-01T05:18:36;92168.91;;;3.45;74.02
39455;BME280;25155;41.890;23.446;2023-03-01T05:21:05;92165.50;;;3.45;74.14
39455;BME280;25155;41.890;23.446;2023-03-01T05:23:33;92175.88;;;3.45;74.11
39455;BME280;25155;41.890;23.446;2023-03-01T05:26:02;92168.09;;;3.45;74.02
39455;BME280;25155;41.890;23.446;2023-03-01T05:28:30;92166.84;;;3.47;73.89
39455;BME280;25155;41.890;23.446;2023-03-01T05:30:58;92162.22;;;3.50;73.62
39455;BME280;25155;41.890;23.446;2023-03-01T05:33:26;92170.53;;;3.52;73.45
39455;BME280;25155;41.890;23.446;2023-03-01T05:35:54;92175.97;;;3.50;73.78
39455;BME280;25155;41.890;23.446;2023-03-01T05:38:21;92175.72;;;3.52;73.50
39455;BME280;25155;41.890;23.446;2023-03-01T05:40:49;92182.50;;;3.53;73.50
39455;BME280;25155;41.890;23.446;2023-03-01T05:43:16;92176.84;;;3.56;73.63
39455;BME280;25155;41.890;23.446;2023-03-01T05:45:44;92183.59;;;3.57;73.53
39455;BME280;25155;41.890;23.446;2023-03-01T05:48:14;92184.41;;;3.57;73.35
39455;BME280;25155;41.890;23.446;2023-03-01T05:50:43;92185.19;;;3.58;73.39
39455;BME280;25155;41.890;23.446;2023-03-01T05:53:13;92185.19;;;3.58;73.31
39455;BME280;25155;41.890;23.446;2023-03-01T05:55:41;92186.53;;;3.60;73.20
39455;BME280;25155;41.890;23.446;2023-03-01T05:58:12;92188.09;;;3.61;73.35
39455;BME280;25155;41.890;23.446;2023-03-01T06:00:41;92188.63;;;3.63;73.37
39455;BME280;25155;41.890;23.446;2023-03-01T06:03:10;92194.16;;;3.67;73.35
39455;BME280;25155;41.890;23.446;2023-03-01T06:05:39;92190.53;;;3.68;73.43
39455;BME280;25155;41.890;23.446;2023-03-01T06:08:08;92196.53;;;3.69;73.17
39455;BME280;25155;41.890;23.446;2023-03-01T06:10:36;92197.63;;;3.73;73.21
39455;BME280;25155;41.890;23.446;2023-03-01T06:13:03;92197.63;;;3.73;73.19
39455;BME280;25155;41.890;23.446;2023-03-01T06:15:31;92189.53;;;3.69;72.90
39455;BME280;25155;41.890;23.446;2023-03-01T06:17:59;92205.72;;;3.76;73.04
39455;BME280;25155;41.890;23.446;2023-03-01T06:20:28;92192.13;;;3.69;72.67
39455;BME280;25155;41.890;23.446;2023-03-01T06:22:58;92209.91;;;3.77;72.96
39455;BME280;25155;41.890;23.446;2023-03-01T06:25:27;92207.06;;;3.79;72.53
39455;BME280;25155;41.890;23.446;2023-03-01T06:27:54;92207.38;;;3.82;72.79
39455;BME280;25155;41.890;23.446;2023-03-01T06:30:24;92211.56;;;3.83;72.92
39455;BME280;25155;41.890;23.446;2023-03-01T06:32:52;92205.88;;;3.87;72.55
39455;BME280;25155;41.890;23.446;2023-03-01T06:35:29;92208.47;;;3.87;72.45
39455;BME280;25155;41.890;23.446;2023-03-01T06:38:01;92211.66;;;3.89;72.62
39455;BME280;25155;41.890;23.446;2023-03-01T06:40:29;92214.78;;;3.91;72.65
39455;BME280;25155;41.890;23.446;2023-03-01T06:42:57;92219.53;;;3.94;72.35
39455;BME280;25155;41.890;23.446;2023-03-01T06:45:25;92211.16;;;3.92;71.54
39455;BME280;25155;41.890;23.446;2023-03-01T06:47:52;92212.66;;;3.88;71.84
39455;BME280;25155;41.890;23.446;2023-03-01T06:50:19;92216.84;;;3.89;71.98
39455;BME280;25155;41.890;23.446;2023-03-01T06:52:47;92215.81;;;3.90;72.16
39455;BME280;25155;41.890;23.446;2023-03-01T06:55:15;92216.34;;;3.92;72.08
39455;BME280;25155;41.890;23.446;2023-03-01T06:57:43;92220.75;;;3.91;72.22
39455;BME280;25155;41.890;23.446;2023-03-01T07:00:11;92217.84;;;3.88;72.67
39455;BME280;25155;41.890;23.446;2023-03-01T07:02:38;92214.16;;;3.83;72.46
39455;BME280;25155;41.890;23.446;2023-03-01T07:05:06;92210.66;;;3.78;72.63
39455;BME280;25155;41.890;23.446;2023-03-01T07:07:33;92219.84;;;3.69;72.93
39455;BME280;25155;41.890;23.446;2023-03-01T07:10:00;92221.56;;;3.63;73.41
39455;BME280;25155;41.890;23.446;2023-03-01T07:12:29;92218.63;;;3.59;73.80
39455;BME280;25155;41.890;23.446;2023-03-01T07:14:56;92214.78;;;3.62;73.79
39455;BME280;25155;41.890;23.446;2023-03-01T07:17:23;92208.28;;;3.59;73.88
39455;BME280;25155;41.890;23.446;2023-03-01T07:19:51;92209.84;;;3.60;73.60
39455;BME280;25155;41.890;23.446;2023-03-01T07:22:18;92211.19;;;3.63;73.75
39455;BME280;25155;41.890;23.446;2023-03-01T07:24:45;92215.28;;;3.59;74.16
39455;BME280;25155;41.890;23.446;2023-03-01T07:27:13;92211.53;;;3.55;74.11
39455;BME280;25155;41.890;23.446;2023-03-01T07:29:41;92216.88;;;3.48;74.53
39455;BME280;25155;41.890;23.446;2023-03-01T07:32:09;92210.69;;;3.49;74.73
39455;BME280;25155;41.890;23.446;2023-03-01T07:34:37;92208.19;;;3.54;74.79
39455;BME280;25155;41.890;23.446;2023-03-01T07:37:04;92211.88;;;3.58;74.90
39455;BME280;25155;41.890;23.446;2023-03-01T07:39:31;92208.59;;;3.63;74.26
39455;BME280;25155;41.890;23.446;2023-03-01T07:41:58;92202.16;;;3.65;74.35
39455;BME280;25155;41.890;23.446;2023-03-01T07:44:25;92198.84;;;3.70;74.62
39455;BME280;25155;41.890;23.446;2023-03-01T07:46:55;92202.66;;;3.79;74.49
39455;BME280;25155;41.890;23.446;2023-03-01T07:49:23;92197.66;;;3.90;74.78
39455;BME280;25155;41.890;23.446;2023-03-01T07:51:52;92192.09;;;3.98;74.32
39455;BME280;25155;41.890;23.446;2023-03-01T07:54:19;92195.88;;;4.07;74.34
39455;BME280;25155;41.890;23.446;2023-03-01T07:56:46;92192.44;;;4.18;74.63
39455;BME280;25155;41.890;23.446;2023-03-01T07:59:14;92194.66;;;4.27;74.17
39455;BME280;25155;41.890;23.446;2023-03-01T08:01:41;92183.22;;;4.28;74.01
39455;BME280;25155;41.890;23.446;2023-03-01T08:04:09;92189.44;;;4.27;73.17
39455;BME280;25155;41.890;23.446;2023-03-01T08:06:36;92189.69;;;4.25;72.96
39455;BME280;25155;41.890;23.446;2023-03-01T08:09:04;92193.13;;;4.31;73.26
39455;BME280;25155;41.890;23.446;2023-03-01T08:11:31;92190.38;;;4.37;73.11
39455;BME280;25155;41.890;23.446;2023-03-01T08:13:58;92194.88;;;4.42;73.18
39455;BME280;25155;41.890;23.446;2023-03-01T08:16:26;92189.69;;;4.42;72.87
39455;BME280;25155;41.890;23.446;2023-03-01T08:18:53;92195.47;;;4.49;72.90
39455;BME280;25155;41.890;23.446;2023-03-01T08:21:23;92193.78;;;4.55;72.25
39455;BME280;25155;41.890;23.446;2023-03-01T08:23:50;92183.47;;;4.60;72.17
39455;BME280;25155;41.890;23.446;2023-03-01T08:26:20;92178.09;;;4.67;72.27
39455;BME280;25155;41.890;23.446;2023-03-01T08:28:48;92184.94;;;4.73;71.83
39455;BME280;25155;41.890;23.446;2023-03-01T08:31:18;92182.09;;;4.74;72.18
39455;BME280;25155;41.890;23.446;2023-03-01T08:33:47;92185.00;;;4.78;72.19
39455;BME280;25155;41.890;23.446;2023-03-01T08:36:17;92191.53;;;4.81;71.82
39455;BME280;25155;41.890;23.446;2023-03-01T08:38:48;92180.97;;;4.87;71.82
39455;BME280;25155;41.890;23.446;2023-03-01T08:41:16;92186.03;;;4.99;71.81
39455;BME280;25155;41.890;23.446;2023-03-01T08:43:43;92186.13;;;5.04;71.56
39455;BME280;25155;41.890;23.446;2023-03-01T08:46:10;92177.19;;;4.95;70.76
39455;BME280;25155;41.890;23.446;2023-03-01T08:48:38;92179.53;;;4.97;71.44
39455;BME280;25155;41.890;23.446;2023-03-01T08:51:10;92168.91;;;4.98;71.39
39455;BME280;25155;41.890;23.446;2023-03-01T08:53:39;92169.81;;;5.09;71.12
39455;BME280;25155;41.890;23.446;2023-03-01T08:56:09;92175.81;;;5.09;70.15
39455;BME280;25155;41.890;23.446;2023-03-01T08:58:36;92179.78;;;5.17;70.82
39455;BME280;25155;41.890;23.446;2023-03-01T09:01:07;92183.25;;;5.23;70.40
39455;BME280;25155;41.890;23.446;2023-03-01T09:03:35;92176.81;;;5.30;70.40
39455;BME280;25155;41.890;23.446;2023-03-01T09:06:04;92172.72;;;5.35;70.24
39455;BME280;25155;41.890;23.446;2023-03-01T09:08:35;92173.50;;;5.35;70.79
39455;BME280;25155;41.890;23.446;2023-03-01T09:11:03;92170.50;;;5.43;70.38
39455;BME280;25155;41.890;23.446;2023-03-01T09:13:32;92176.56;;;5.49;70.17
39455;BME280;25155;41.890;23.446;2023-03-01T09:16:02;92171.38;;;5.49;70.41
39455;BME280;25155;41.890;23.446;2023-03-01T09:18:29;92166.75;;;5.56;69.87
39455;BME280;25155;41.890;23.446;2023-03-01T09:21:01;92170.06;;;5.52;69.13
39455;BME280;25155;41.890;23.446;2023-03-01T09:23:28;92164.50;;;5.21;69.82
39455;BME280;25155;41.890;23.446;2023-03-01T09:25:55;92154.66;;;5.45;69.85
39455;BME280;25155;41.890;23.446;2023-03-01T09:28:22;92155.75;;;5.49;69.30
39455;BME280;25155;41.890;23.446;2023-03-01T09:30:51;92156.84;;;5.53;69.37
39455;BME280;25155;41.890;23.446;2023-03-01T09:33:18;92159.19;;;5.55;68.59
39455;BME280;25155;41.890;23.446;2023-03-01T09:35:45;92156.53;;;5.49;68.27
39455;BME280;25155;41.890;23.446;2023-03-01T09:38:13;92152.00;;;5.40;68.44
39455;BME280;25155;41.890;23.446;2023-03-01T09:40:42;92157.66;;;5.37;68.68
39455;BME280;25155;41.890;23.446;2023-03-01T09:43:18;92154.25;;;5.31;68.48
39455;BME280;25155;41.890;23.446;2023-03-01T09:45:51;92145.22;;;5.39;69.05
39455;BME280;25155;41.890;23.446;2023-03-01T09:48:23;92150.81;;;5.47;68.37
39455;BME280;25155;41.890;23.446;2023-03-01T09:50:53;92148.06;;;5.59;68.92
39455;BME280;25155;41.890;23.446;2023-03-01T09:53:22;92147.56;;;5.62;67.77
39455;BME280;25155;41.890;23.446;2023-03-01T09:55:53;92146.25;;;5.60;67.26
39455;BME280;25155;41.890;23.446;2023-03-01T09:58:34;92145.94;;;5.56;67.21
39455;BME280;25155;41.890;23.446;2023-03-01T10:01:23;92143.09;;;5.58;67.21
39455;BME280;25155;41.890;23.446;2023-03-01T10:04:23;92145.03;;;5.67;67.15
39455;BME280;25155;41.890;23.446;2023-03-01T10:07:11;92134.19;;;5.76;67.27
39455;BME280;25155;41.890;23.446;2023-03-01T10:09:43;92136.81;;;5.81;67.22
39455;BME280;25155;41.890;23.446;2023-03-01T10:12:13;92129.47;;;5.73;66.36
39455;BME280;25155;41.890;23.446;2023-03-01T10:14:48;92132.06;;;5.73;66.86
39455;BME280;25155;41.890;23.446;2023-03-01T10:17:26;92129.75;;;5.76;66.53
39455;BME280;25155;41.890;23.446;2023-03-01T10:19:55;92126.97;;;5.83;66.98
39455;BME280;25155;41.890;23.446;2023-03-01T10:22:29;92128.56;;;5.89;66.53
39455;BME280;25155;41.890;23.446;2023-03-01T10:24:59;92126.03;;;5.94;66.08
39455;BME280;25155;41.890;23.446;2023-03-01T10:27:36;92113.53;;;5.96;66.37
39455;BME280;25155;41.890;23.446;2023-03-01T10:30:12;92118.47;;;5.93;66.30
39455;BME280;25155;41.890;23.446;2023-03-01T10:32:44;92119.69;;;5.85;66.37
39455;BME280;25155;41.890;23.446;2023-03-01T10:35:20;92109.69;;;5.72;66.11
39455;BME280;25155;41.890;23.446;2023-03-01T10:37:59;92113.66;;;5.79;66.21
39455;BME280;25155;41.890;23.446;2023-03-01T10:40:29;92113.41;;;5.81;65.89
39455;BME280;25155;41.890;23.446;2023-03-01T10:42:58;92107.38;;;5.75;66.00
39455;BME280;25155;41.890;23.446;2023-03-01T10:45:33;92105.00;;;5.74;66.33
39455;BME280;25155;41.890;23.446;2023-03-01T10:48:13;92101.97;;;5.82;66.36
39455;BME280;25155;41.890;23.446;2023-03-01T10:50:41;92098.94;;;5.95;66.78
39455;BME280;25155;41.890;23.446;2023-03-01T10:53:22;92101.31;;;5.97;65.95
39455;BME280;25155;41.890;23.446;2023-03-01T10:56:00;92101.88;;;5.99;65.97
39455;BME280;25155;41.890;23.446;2023-03-01T10:58:29;92094.34;;;6.02;65.90
39455;BME280;25155;41.890;23.446;2023-03-01T11:00:59;92083.19;;;6.07;66.15
39455;BME280;25155;41.890;23.446;2023-03-01T11:03:29;92083.50;;;6.16;65.98
39455;BME280;25155;41.890;23.446;2023-03-01T11:06:00;92077.34;;;6.27;66.07
39455;BME280;25155;41.890;23.446;2023-03-01T11:08:33;92080.00;;;6.37;65.98
39455;BME280;25155;41.890;23.446;2023-03-01T11:11:16;92077.97;;;6.45;66.24
39455;BME280;25155;41.890;23.446;2023-03-01T11:13:52;92064.69;;;6.46;65.74
39455;BME280;25155;41.890;23.446;2023-03-01T11:16:25;92069.16;;;6.56;66.22
39455;BME280;25155;41.890;23.446;2023-03-01T11:18:59;92073.38;;;6.62;65.86
39455;BME280;25155;41.890;23.446;2023-03-01T11:21:30;92068.97;;;6.68;65.90
39455;BME280;25155;41.890;23.446;2023-03-01T11:24:01;92055.72;;;6.74;65.76
39455;BME280;25155;41.890;23.446;2023-03-01T11:26:40;92058.34;;;6.79;65.62
39455;BME280;25155;41.890;23.446;2023-03-01T11:29:14;92056.56;;;6.85;65.66
39455;BME280;25155;41.890;23.446;2023-03-01T11:31:46;92056.31;;;6.87;65.25
39455;BME280;25155;41.890;23.446;2023-03-01T11:34:20;92048.47;;;6.87;65.12
39455;BME280;25155;41.890;23.446;2023-03-01T11:36:54;92042.72;;;6.79;65.45
39455;BME280;25155;41.890;23.446;2023-03-01T11:39:30;92038.53;;;6.73;65.79
39455;BME280;25155;41.890;23.446;2023-03-01T11:42:06;92039.59;;;6.77;65.66
39455;BME280;25155;41.890;23.446;2023-03-01T11:44:40;92042.72;;;6.79;65.56
39455;BME280;25155;41.890;23.446;2023-03-01T11:47:13;92048.34;;;6.56;66.26
39455;BME280;25155;41.890;23.446;2023-03-01T11:50:04;92039.53;;;6.62;65.33
39455;BME280;25155;41.890;23.446;2023-03-01T11:52:45;92041.88;;;6.64;65.42
39455;BME280;25155;41.890;23.446;2023-03-01T11:55:26;92042.38;;;6.55;65.39
39455;BME280;25155;41.890;23.446;2023-03-01T12:01:02;92030.59;;;6.48;65.25
39455;BME280;25155;41.890;23.446;2023-03-01T12:03:54;92034.78;;;6.49;65.40
39455;BME280;25155;41.890;23.446;2023-03-01T12:06:52;92032.72;;;6.56;65.46
39455;BME280;25155;41.890;23.446;2023-03-01T12:09:36;92037.44;;;6.64;65.58
39455;BME280;25155;41.890;23.446;2023-03-01T12:12:25;92032.75;;;6.66;65.28
39455;BME280;25155;41.890;23.446;2023-03-01T12:15:24;92037.47;;;6.69;65.38
39455;BME280;25155;41.890;23.446;2023-03-01T12:18:21;92032.78;;;6.71;65.41
39455;BME280;25155;41.890;23.446;2023-03-01T12:20:58;92030.75;;;6.78;66.24
39455;BME280;25155;41.890;23.446;2023-03-01T12:23:57;92025.00;;;6.76;65.82
39455;BME280;25155;41.890;23.446;2023-03-01T12:26:31;92026.56;;;6.83;65.87
39455;BME280;25155;41.890;23.446;2023-03-01T12:29:11;92028.16;;;6.89;66.03
39455;BME280;25155;41.890;23.446;2023-03-01T12:32:00;92026.59;;;6.93;65.87
39455;BME280;25155;41.890;23.446;2023-03-01T12:34:49;92025.31;;;6.95;65.98
39455;BME280;25155;41.890;23.446;2023-03-01T12:37:28;92019.88;;;7.02;65.82
39455;BME280;25155;41.890;23.446;2023-03-01T12:43:05;92017.25;;;7.02;66.09
39455;BME280;25155;41.890;23.446;2023-03-01T12:45:43;92010.22;;;7.08;66.30
39455;BME280;25155;41.890;23.446;2023-03-01T12:48:24;92007.41;;;7.14;66.08
39455;BME280;25155;41.890;23.446;2023-03-01T12:51:01;92008.19;;;7.20;65.76
39455;BME280;25155;41.890;23.446;2023-03-01T12:53:34;92006.34;;;7.26;66.16
39455;BME280;25155;41.890;23.446;2023-03-01T12:56:06;92001.44;;;7.29;65.36
39455;BME280;25155;41.890;23.446;2023-03-01T12:58:40;92006.13;;;7.32;65.54
39455;BME280;25155;41.890;23.446;2023-03-01T13:01:18;92002.25;;;7.35;65.36
39455;BME280;25155;41.890;23.446;2023-03-01T13:04:05;92002.75;;;7.37;65.48
39455;BME280;25155;41.890;23.446;2023-03-01T13:06:42;92003.81;;;7.36;65.52
39455;BME280;25155;41.890;23.446;2023-03-01T13:09:21;92009.81;;;7.37;65.28
39455;BME280;25155;41.890;23.446;2023-03-01T13:11:51;92008.50;;;7.34;65.02
39455;BME280;25155;41.890;23.446;2023-03-01T13:14:37;92010.81;;;7.30;64.54
39455;BME280;25155;41.890;23.446;2023-03-01T13:17:33;92010.78;;;7.20;65.04
39455;BME280;25155;41.890;23.446;2023-03-01T13:20:13;92008.94;;;7.15;64.88
39455;BME280;25155;41.890;23.446;2023-03-01T13:22:42;92005.56;;;7.20;65.33
39455;BME280;25155;41.890;23.446;2023-03-01T13:25:15;91999.06;;;7.23;64.99
39455;BME280;25155;41.890;23.446;2023-03-01T13:27:44;92005.25;;;6.96;65.67